createdAt,value
2018-11-01T00:02:18.546Z,8.70
2018-11-01T00:04:46.610Z,8.70
2018-11-01T00:07:14.601Z,8.70
2018-11-01T00:09:42.771Z,8.70
2018-11-01T00:12:10.753Z,8.70
2018-11-01T00:14:39.796Z,8.70
2018-11-01T00:17:07.797Z,8.70
2018-11-01T00:19:36.261Z,8.70
2018-11-01T00:22:04.248Z,8.70
2018-11-01T00:24:34.410Z,8.60
2018-11-01T00:27:02.381Z,8.60
2018-11-01T00:29:30.978Z,8.60
2018-11-01T00:31:58.951Z,8.60
2018-11-01T00:34:27.028Z,8.60
2018-11-01T00:36:55.081Z,8.60
2018-11-01T00:39:23.477Z,8.60
2018-11-01T00:41:51.500Z,8.60
2018-11-01T00:44:19.883Z,8.60
2018-11-01T00:46:47.935Z,8.60
2018-11-01T00:49:16.248Z,8.60
2018-11-01T00:51:44.290Z,8.60
2018-11-01T00:54:12.394Z,8.60
2018-11-01T00:56:40.783Z,8.60
2018-11-01T00:59:08.817Z,8.60
2018-11-01T01:01:36.872Z,8.50
2018-11-01T01:04:04.984Z,8.50
2018-11-01T01:06:33.515Z,8.50
2018-11-01T01:09:01.546Z,8.40
2018-11-01T01:11:29.546Z,8.40
2018-11-01T01:13:57.601Z,8.40
2018-11-01T01:16:25.593Z,8.40
2018-11-01T01:18:54.815Z,8.40
2018-11-01T01:21:22.761Z,8.40
2018-11-01T01:23:50.882Z,8.40
2018-11-01T01:26:18.877Z,8.50
2018-11-01T01:28:48.035Z,8.50
2018-11-01T01:31:16.027Z,8.50
2018-11-01T01:33:44.161Z,8.50
2018-11-01T01:36:12.163Z,8.40
2018-11-01T01:38:40.756Z,8.40
2018-11-01T01:41:08.786Z,8.40
2018-11-01T01:43:40.239Z,8.40
2018-11-01T01:46:08.250Z,8.30
2018-11-01T01:48:36.372Z,8.30
2018-11-01T01:51:04.588Z,8.20
2018-11-01T01:53:32.646Z,8.20
2018-11-01T01:56:00.639Z,8.10
2018-11-01T01:58:28.751Z,8.10
2018-11-01T02:00:57.242Z,8.10
2018-11-01T02:03:25.294Z,8.00
2018-11-01T02:05:53.324Z,8.00
2018-11-01T02:08:21.641Z,8.00
2018-11-01T02:10:49.677Z,7.90
2018-11-01T02:13:17.739Z,7.90
2018-11-01T02:15:45.902Z,7.90
2018-11-01T02:18:13.901Z,7.90
2018-11-01T02:20:41.985Z,7.90
2018-11-01T02:23:10.043Z,7.80
2018-11-01T02:25:39.166Z,7.80
2018-11-01T02:28:12.522Z,7.80
2018-11-01T02:30:41.626Z,7.80
2018-11-01T02:33:09.601Z,7.70
2018-11-01T02:35:38.861Z,7.70
2018-11-01T02:38:07.367Z,7.60
2018-11-01T02:40:38.973Z,7.60
2018-11-01T02:43:06.951Z,7.60
2018-11-01T02:45:35.273Z,7.60
2018-11-01T02:48:03.332Z,7.50
2018-11-01T02:50:31.462Z,7.60
2018-11-01T02:52:59.421Z,7.60
2018-11-01T02:55:29.516Z,7.60
2018-11-01T02:57:58.226Z,7.50
2018-11-01T03:00:26.311Z,7.50
2018-11-01T03:02:54.380Z,7.50
2018-11-01T03:05:23.514Z,7.50
2018-11-01T03:07:51.506Z,7.50
2018-11-01T03:10:21.616Z,7.40
2018-11-01T03:12:49.629Z,7.40
2018-11-01T03:15:17.773Z,7.40
2018-11-01T03:17:46.588Z,7.40
2018-11-01T03:20:14.770Z,7.30
2018-11-01T03:22:42.792Z,7.30
2018-11-01T03:25:12.966Z,7.30
2018-11-01T03:27:41.026Z,7.20
2018-11-01T03:30:09.798Z,7.20
2018-11-01T03:32:38.482Z,7.20
2018-11-01T03:35:07.703Z,7.20
2018-11-01T03:37:35.768Z,7.10
2018-11-01T03:40:03.993Z,7.10
2018-11-01T03:42:32.095Z,7.00
2018-11-01T03:45:00.229Z,7.00
2018-11-01T03:47:28.246Z,7.00
2018-11-01T03:49:56.483Z,7.00
2018-11-01T03:52:24.441Z,7.10
2018-11-01T03:54:52.657Z,7.20
2018-11-01T03:57:21.067Z,7.20
2018-11-01T03:59:49.228Z,7.30
2018-11-01T04:02:17.259Z,7.30
2018-11-01T04:04:47.435Z,7.20
2018-11-01T04:07:15.852Z,7.20
2018-11-01T04:09:44.063Z,7.20
2018-11-01T04:12:12.127Z,7.10
2018-11-01T04:14:41.350Z,7.20
2018-11-01T04:17:09.405Z,7.10
2018-11-01T04:19:37.634Z,7.10
2018-11-01T04:22:07.215Z,7.10
2018-11-01T04:24:36.491Z,7.10
2018-11-01T04:27:04.916Z,7.10
2018-11-01T04:29:35.412Z,7.20
2018-11-01T04:32:03.506Z,7.20
2018-11-01T04:34:31.880Z,7.20
2018-11-01T04:36:59.989Z,7.20
2018-11-01T04:39:32.237Z,7.10
2018-11-01T04:42:00.283Z,7.10
2018-11-01T04:44:28.439Z,7.00
2018-11-01T04:46:56.898Z,7.00
2018-11-01T04:49:26.478Z,6.90
2018-11-01T04:51:54.506Z,6.90
2018-11-01T04:54:26.787Z,6.80
2018-11-01T04:56:54.794Z,6.80
2018-11-01T04:59:22.985Z,6.80
2018-11-01T05:01:50.956Z,6.70
2018-11-01T05:04:20.203Z,6.70
2018-11-01T05:06:48.212Z,6.60
2018-11-01T05:09:16.796Z,6.60
2018-11-01T05:11:44.836Z,6.50
2018-11-01T05:14:12.994Z,6.50
2018-11-01T05:16:40.967Z,6.50
2018-11-01T05:19:12.366Z,6.40
2018-11-01T05:21:40.372Z,6.40
2018-11-01T05:24:08.521Z,6.40
2018-11-01T05:26:36.534Z,6.40
2018-11-01T05:29:04.644Z,6.40
2018-11-01T05:31:32.609Z,6.40
2018-11-01T05:34:00.774Z,6.40
2018-11-01T05:36:29.255Z,6.30
2018-11-01T05:38:57.470Z,6.30
2018-11-01T05:41:25.571Z,6.30
2018-11-01T05:43:53.709Z,6.30
2018-11-01T05:46:21.724Z,6.20
2018-11-01T05:48:49.863Z,6.20
2018-11-01T05:51:18.216Z,6.10
2018-11-01T05:53:47.419Z,6.00
2018-11-01T05:56:15.413Z,6.00
2018-11-01T05:58:43.685Z,6.00
2018-11-01T06:01:12.484Z,6.00
2018-11-01T06:03:40.950Z,6.00
2018-11-01T06:06:09.058Z,6.10
2018-11-01T06:08:40.430Z,6.10
2018-11-01T06:11:08.464Z,6.10
2018-11-01T06:13:36.588Z,6.10
2018-11-01T06:16:05.144Z,6.00
2018-11-01T06:18:33.262Z,6.00
2018-11-01T06:21:01.311Z,6.00
2018-11-01T06:23:31.487Z,5.90
2018-11-01T06:25:59.483Z,5.90
2018-11-01T06:28:28.666Z,5.80
2018-11-01T06:30:56.681Z,5.80
2018-11-01T06:33:24.843Z,5.70
2018-11-01T06:35:58.421Z,5.70
2018-11-01T06:38:26.505Z,5.70
2018-11-01T06:40:54.673Z,5.70
2018-11-01T06:43:22.682Z,5.70
2018-11-01T06:45:50.870Z,5.80
2018-11-01T06:48:18.846Z,5.80
2018-11-01T06:50:47.370Z,5.80
2018-11-01T06:53:15.358Z,5.80
2018-11-01T06:55:43.540Z,5.80
2018-11-01T06:58:11.512Z,5.80
2018-11-01T07:00:39.697Z,5.80
2018-11-01T07:03:07.711Z,5.80
2018-11-01T07:05:35.867Z,5.90
2018-11-01T07:08:03.920Z,5.80
2018-11-01T07:10:39.326Z,5.90
2018-11-01T07:13:07.446Z,5.90
2018-11-01T07:15:35.637Z,5.90
2018-11-01T07:18:03.674Z,5.90
2018-11-01T07:20:31.853Z,5.90
2018-11-01T07:22:59.838Z,6.00
2018-11-01T07:25:28.134Z,6.00
2018-11-01T07:27:56.439Z,6.10
2018-11-01T07:30:24.590Z,6.20
2018-11-01T07:32:52.695Z,6.20
2018-11-01T07:35:20.837Z,6.30
2018-11-01T07:37:48.824Z,6.40
2018-11-01T07:40:21.632Z,6.40
2018-11-01T07:42:49.609Z,6.50
2018-11-01T07:45:17.936Z,6.50
2018-11-01T07:47:46.261Z,6.60
2018-11-01T07:50:14.874Z,6.70
2018-11-01T07:52:43.425Z,6.70
2018-11-01T07:55:13.773Z,6.80
2018-11-01T07:57:41.748Z,6.90
2018-11-01T08:00:12.116Z,7.00
2018-11-01T08:02:40.310Z,7.10
2018-11-01T08:05:09.723Z,7.20
2018-11-01T08:07:37.805Z,7.20
2018-11-01T08:10:07.554Z,7.30
2018-11-01T08:12:36.624Z,7.30
2018-11-01T08:15:05.417Z,7.30
2018-11-01T08:17:33.597Z,7.40
2018-11-01T08:20:01.894Z,7.40
2018-11-01T08:22:29.828Z,7.50
2018-11-01T08:24:57.979Z,7.50
2018-11-01T08:27:26.051Z,7.60
2018-11-01T08:29:54.235Z,7.70
2018-11-01T08:32:22.223Z,7.80
2018-11-01T08:34:50.735Z,7.90
2018-11-01T08:37:18.750Z,8.00
2018-11-01T08:39:46.926Z,8.00
2018-11-01T08:42:15.781Z,8.10
2018-11-01T08:44:43.820Z,8.20
2018-11-01T08:47:11.790Z,8.30
2018-11-01T08:49:40.281Z,8.30
2018-11-01T08:52:08.275Z,8.40
2018-11-01T08:54:36.499Z,8.40
2018-11-01T08:57:04.532Z,8.40
2018-11-01T08:59:32.728Z,8.50
2018-11-01T09:02:00.742Z,8.50
2018-11-01T09:04:28.858Z,8.60
2018-11-01T09:06:56.889Z,8.60
2018-11-01T09:09:24.978Z,8.70
2018-11-01T09:11:53.223Z,8.80
2018-11-01T09:14:21.347Z,8.90
2018-11-01T09:16:49.626Z,8.90
2018-11-01T09:19:17.810Z,9.00
2018-11-01T09:21:46.549Z,9.00
2018-11-01T09:24:15.001Z,9.10
2018-11-01T09:26:43.049Z,9.20
2018-11-01T09:29:11.224Z,9.20
2018-11-01T09:31:39.253Z,9.10
2018-11-01T09:34:07.992Z,9.20
2018-11-01T09:36:36.449Z,9.20
2018-11-01T09:39:06.136Z,9.20
2018-11-01T09:41:34.275Z,9.20
2018-11-01T09:44:04.514Z,9.20
2018-11-01T09:46:32.967Z,9.20
2018-11-01T09:49:01.681Z,9.30
2018-11-01T09:51:30.008Z,9.30
2018-11-01T09:53:58.980Z,9.40
2018-11-01T09:56:28.107Z,9.40
2018-11-01T09:58:56.125Z,9.40
2018-11-01T10:01:24.744Z,9.40
2018-11-01T10:03:52.955Z,9.50
2018-11-01T10:06:21.939Z,9.60
2018-11-01T10:08:50.042Z,9.60
2018-11-01T10:11:18.114Z,9.70
2018-11-01T10:13:46.310Z,9.70
2018-11-01T10:16:14.420Z,9.60
2018-11-01T10:18:42.788Z,9.60
2018-11-01T10:21:10.797Z,9.60
2018-11-01T10:23:42.773Z,9.60
2018-11-01T10:26:11.055Z,9.60
2018-11-01T10:28:43.433Z,9.60
2018-11-01T10:31:11.470Z,9.60
2018-11-01T10:33:44.200Z,9.60
2018-11-01T10:36:12.201Z,9.70
2018-11-01T10:38:42.246Z,9.70
2018-11-01T10:41:10.554Z,9.70
2018-11-01T10:43:39.018Z,9.70
2018-11-01T10:46:07.771Z,9.80
2018-11-01T10:48:41.088Z,9.80
2018-11-01T10:51:09.488Z,9.80
2018-11-01T10:53:38.031Z,9.90
2018-11-01T10:56:06.487Z,9.90
2018-11-01T10:58:34.921Z,9.90
2018-11-01T11:01:08.332Z,9.90
2018-11-01T11:03:37.587Z,9.90
2018-11-01T11:06:06.620Z,9.90
2018-11-01T11:08:34.658Z,9.90
2018-11-01T11:11:05.951Z,9.80
2018-11-01T11:13:34.135Z,9.80
2018-11-01T11:16:02.174Z,9.80
2018-11-01T11:18:30.323Z,9.80
2018-11-01T11:20:59.312Z,9.80
2018-11-01T11:23:27.597Z,9.80
2018-11-01T11:25:55.975Z,9.90
2018-11-01T11:28:25.435Z,9.90
2018-11-01T11:32:47.752Z,9.80
2018-11-01T11:35:16.655Z,9.90
2018-11-01T11:37:45.676Z,9.90
2018-11-01T11:40:14.567Z,10.00
2018-11-01T11:42:49.299Z,10.10
2018-11-01T11:45:18.179Z,10.00
2018-11-01T11:47:47.260Z,10.10
2018-11-01T11:50:16.301Z,10.10
2018-11-01T11:52:45.820Z,10.10
2018-11-01T11:55:14.858Z,10.20
2018-11-01T11:57:47.200Z,10.20
2018-11-01T12:00:16.675Z,10.30
2018-11-01T12:02:49.289Z,10.40
2018-11-01T12:05:18.242Z,10.40
2018-11-01T12:07:47.222Z,10.40
2018-11-01T12:10:16.142Z,10.40
2018-11-01T12:12:45.299Z,10.40
2018-11-01T12:15:14.215Z,10.40
2018-11-01T12:17:43.258Z,10.40
2018-11-01T12:20:13.731Z,10.40
2018-11-01T12:22:48.580Z,10.30
2018-11-01T12:25:17.908Z,10.30
2018-11-01T12:27:46.881Z,10.20
2018-11-01T12:30:15.774Z,10.20
2018-11-01T12:32:45.551Z,10.20
2018-11-01T12:35:14.417Z,10.20
2018-11-01T12:37:45.371Z,10.20
2018-11-01T12:40:14.914Z,10.20
2018-11-01T12:42:45.415Z,10.10
2018-11-01T12:45:15.091Z,10.10
2018-11-01T12:47:46.167Z,10.00
2018-11-01T12:50:15.125Z,10.00
2018-11-01T12:52:46.133Z,9.90
2018-11-01T12:55:14.987Z,9.90
2018-11-01T12:57:48.314Z,9.90
2018-11-01T13:00:17.185Z,9.80
2018-11-01T13:02:46.182Z,9.80
2018-11-01T13:05:15.177Z,9.80
2018-11-01T13:07:44.227Z,9.80
2018-11-01T13:10:13.447Z,9.80
2018-11-01T13:12:42.328Z,9.80
2018-11-01T13:15:12.275Z,9.80
2018-11-01T13:17:41.253Z,9.80
2018-11-01T13:20:10.854Z,9.90
2018-11-01T13:22:39.852Z,9.90
2018-11-01T13:25:10.542Z,9.90
2018-11-01T13:27:39.425Z,9.90
2018-11-01T13:30:11.857Z,9.90
2018-11-01T13:32:40.891Z,9.90
2018-11-01T13:35:10.120Z,9.90
2018-11-01T13:37:38.904Z,9.90
2018-11-01T13:40:08.675Z,9.90
2018-11-01T13:42:37.254Z,10.00
2018-11-01T13:45:10.298Z,10.00
2018-11-01T13:47:39.249Z,10.00
2018-11-01T13:50:12.905Z,10.00
2018-11-01T13:52:41.821Z,10.00
2018-11-01T13:55:12.016Z,10.00
2018-11-01T13:57:41.066Z,10.00
2018-11-01T14:00:12.812Z,10.00
2018-11-01T14:02:42.414Z,10.00
2018-11-01T14:05:15.712Z,10.00
2018-11-01T14:07:45.107Z,10.00
2018-11-01T14:10:15.299Z,9.90
2018-11-01T14:12:44.272Z,9.90
2018-11-01T14:15:13.731Z,9.90
2018-11-01T14:17:42.512Z,9.90
2018-11-01T14:20:12.830Z,9.80
2018-11-01T14:22:41.800Z,9.80
2018-11-01T14:25:11.910Z,9.80
2018-11-01T14:27:40.806Z,9.70
2018-11-01T14:30:12.033Z,9.70
2018-11-01T14:32:41.309Z,9.70
2018-11-01T14:35:11.090Z,9.60
2018-11-01T14:37:40.082Z,9.60
2018-11-01T14:40:11.282Z,9.60
2018-11-01T14:42:40.465Z,9.70
2018-11-01T14:45:10.953Z,9.70
2018-11-01T14:47:40.234Z,9.60
2018-11-01T14:50:09.851Z,9.60
2018-11-01T14:52:39.101Z,9.60
2018-11-01T14:55:09.489Z,9.50
2018-11-01T14:57:38.874Z,9.50
2018-11-01T15:00:07.824Z,9.50
2018-11-01T15:02:36.725Z,9.40
2018-11-01T15:05:07.310Z,9.40
2018-11-01T15:07:36.318Z,9.40
2018-11-01T15:10:06.793Z,9.40
2018-11-01T15:12:35.664Z,9.30
2018-11-01T15:15:09.660Z,9.30
2018-11-01T15:17:39.479Z,9.20
2018-11-01T15:20:09.167Z,9.20
2018-11-01T15:22:38.212Z,9.20
2018-11-01T15:25:08.480Z,9.10
2018-11-01T15:27:38.014Z,9.10
2018-11-01T15:30:09.813Z,9.10
2018-11-01T15:32:38.644Z,9.10
2018-11-01T15:35:08.019Z,9.10
2018-11-01T15:37:37.004Z,9.10
2018-11-01T15:40:08.944Z,9.00
2018-11-01T15:42:37.830Z,9.10
2018-11-01T15:45:08.060Z,9.00
2018-11-01T15:47:37.176Z,9.00
2018-11-01T15:50:07.006Z,9.00
2018-11-01T15:52:35.872Z,9.00
2018-11-01T15:55:05.711Z,9.00
2018-11-01T15:57:34.730Z,9.00
2018-11-01T16:00:03.844Z,9.00
2018-11-01T16:02:32.743Z,9.00
2018-11-01T16:05:05.140Z,9.00
2018-11-01T16:07:34.044Z,9.00
2018-11-01T16:10:03.182Z,9.00
2018-11-01T16:12:31.986Z,8.90
2018-11-01T16:15:00.956Z,8.90
2018-11-01T16:17:29.940Z,8.90
2018-11-01T16:19:59.058Z,8.90
2018-11-01T16:22:27.884Z,8.90
2018-11-01T16:24:56.846Z,8.90
2018-11-01T16:27:25.784Z,8.90
2018-11-01T16:29:54.831Z,8.90
2018-11-01T16:32:23.663Z,8.90
2018-11-01T16:34:52.633Z,8.90
2018-11-01T16:37:21.538Z,9.00
2018-11-01T16:39:50.571Z,9.00
2018-11-01T16:42:19.540Z,9.10
2018-11-01T16:44:48.502Z,9.20
2018-11-01T16:47:17.299Z,9.20
2018-11-01T16:49:46.412Z,9.30
2018-11-01T16:52:15.239Z,9.30
2018-11-01T16:54:44.279Z,9.40
2018-11-01T16:57:13.190Z,9.50
2018-11-01T16:59:42.208Z,9.50
2018-11-01T17:02:11.585Z,9.60
2018-11-01T17:04:41.269Z,9.70
2018-11-01T17:07:10.368Z,9.70
2018-11-01T17:09:39.326Z,9.80
2018-11-01T17:12:08.206Z,9.70
2018-11-01T17:14:38.250Z,9.70
2018-11-01T17:17:07.255Z,9.70
2018-11-01T17:19:36.379Z,9.70
2018-11-01T17:22:05.355Z,9.60
2018-11-01T17:24:36.593Z,9.60
2018-11-01T17:27:05.864Z,9.50
2018-11-01T17:29:36.731Z,9.50
2018-11-01T17:32:05.644Z,9.50
2018-11-01T17:34:34.942Z,9.60
2018-11-01T17:37:03.795Z,9.60
2018-11-01T17:39:33.816Z,9.60
2018-11-01T17:42:02.735Z,9.50
2018-11-01T17:44:31.754Z,9.40
2018-11-01T17:47:00.817Z,9.40
2018-11-01T17:49:31.896Z,9.40
2018-11-01T17:52:00.766Z,9.30
2018-11-01T17:54:29.785Z,9.30
2018-11-01T17:56:58.615Z,9.20
2018-11-01T17:59:27.606Z,9.20
2018-11-01T18:01:56.511Z,9.20
2018-11-01T18:04:25.475Z,9.10
2018-11-01T18:06:54.384Z,9.00
2018-11-01T18:09:23.338Z,8.90
2018-11-01T18:11:52.213Z,8.90
2018-11-01T18:14:21.243Z,8.80
2018-11-01T18:16:50.120Z,8.80
2018-11-01T18:19:19.072Z,8.70
2018-11-01T18:21:47.909Z,8.70
2018-11-01T18:24:16.994Z,8.60
2018-11-01T18:26:45.837Z,8.60
2018-11-01T18:29:15.893Z,8.60
2018-11-01T18:31:44.732Z,8.60
2018-11-01T18:34:14.284Z,8.60
2018-11-01T18:36:43.204Z,8.60
2018-11-01T18:39:12.305Z,8.70
2018-11-01T18:41:41.159Z,8.70
2018-11-01T18:44:11.239Z,8.70
2018-11-01T18:46:40.123Z,8.70
2018-11-01T18:49:09.051Z,8.70
2018-11-01T18:51:37.929Z,8.70
2018-11-01T18:54:07.969Z,8.70
2018-11-01T18:56:37.044Z,8.70
2018-11-01T18:59:06.212Z,8.70
2018-11-01T19:01:35.115Z,8.70
2018-11-01T19:04:04.199Z,8.60
2018-11-01T19:06:33.480Z,8.60
2018-11-01T19:09:02.424Z,8.60
2018-11-01T19:11:31.256Z,8.60
2018-11-01T19:14:00.442Z,8.60
2018-11-01T19:16:29.162Z,8.60
2018-11-01T19:18:58.077Z,8.60
2018-11-01T19:21:26.959Z,8.50
2018-11-01T19:23:55.988Z,8.60
2018-11-01T19:26:25.460Z,8.60
2018-11-01T19:28:54.396Z,8.60
2018-11-01T19:31:23.322Z,8.60
2018-11-01T19:33:52.264Z,8.60
2018-11-01T19:36:21.144Z,8.60
2018-11-01T19:38:50.049Z,8.60
2018-11-01T19:41:18.924Z,8.60
2018-11-01T19:43:48.174Z,8.60
2018-11-01T19:46:17.156Z,8.70
2018-11-01T19:48:46.394Z,8.70
2018-11-01T19:51:15.374Z,8.80
2018-11-01T19:53:44.390Z,8.80
2018-11-01T19:56:13.518Z,8.90
2018-11-01T19:58:42.606Z,8.90
2018-11-01T20:01:11.599Z,9.00
2018-11-01T20:03:41.031Z,9.00
2018-11-01T20:06:11.903Z,9.00
2018-11-01T20:08:42.737Z,9.10
2018-11-01T20:11:11.565Z,9.00
2018-11-01T20:13:40.657Z,9.00
2018-11-01T20:16:09.533Z,9.10
2018-11-01T20:18:38.973Z,9.10
2018-11-01T20:21:07.908Z,9.10
2018-11-01T20:23:36.811Z,9.10
2018-11-01T20:26:05.813Z,9.10
2018-11-01T20:28:35.002Z,9.10
2018-11-01T20:31:04.211Z,9.10
2018-11-01T20:33:33.234Z,9.10
2018-11-01T20:36:02.090Z,9.10
2018-11-01T20:38:31.065Z,9.10
2018-11-01T20:41:00.020Z,9.00
2018-11-01T20:43:28.998Z,9.00
2018-11-01T20:45:57.992Z,9.00
2018-11-01T20:48:27.005Z,9.00
2018-11-01T20:50:55.852Z,9.00
2018-11-01T20:53:24.896Z,9.00
2018-11-01T20:55:53.847Z,9.00
2018-11-01T20:58:27.531Z,9.00
2018-11-01T21:00:56.464Z,9.00
2018-11-01T21:03:25.515Z,9.00
2018-11-01T21:05:54.399Z,9.00
2018-11-01T21:08:23.351Z,9.10
2018-11-01T21:10:52.327Z,9.10
2018-11-01T21:13:21.253Z,9.10
2018-11-01T21:15:50.086Z,9.10
2018-11-01T21:18:19.983Z,9.00
2018-11-01T21:20:48.867Z,9.10
2018-11-01T21:23:17.832Z,9.10
2018-11-01T21:25:46.709Z,9.10
2018-11-01T21:28:15.699Z,9.10
2018-11-01T21:30:44.697Z,9.10
2018-11-01T21:33:13.625Z,9.10
2018-11-01T21:35:43.035Z,9.10
2018-11-01T21:38:12.259Z,9.10
2018-11-01T21:40:41.243Z,9.10
2018-11-01T21:43:10.281Z,9.10
2018-11-01T21:45:39.283Z,9.10
2018-11-01T21:48:08.388Z,9.00
2018-11-01T21:50:37.252Z,9.10
2018-11-01T21:53:07.466Z,9.10
2018-11-01T21:55:36.275Z,9.10
2018-11-01T21:58:05.516Z,9.10
2018-11-01T22:00:34.627Z,9.00
2018-11-01T22:03:04.670Z,8.90
2018-11-01T22:05:33.502Z,8.90
2018-11-01T22:08:04.518Z,8.80
2018-11-01T22:10:33.377Z,8.70
2018-11-01T22:13:02.463Z,8.70
2018-11-01T22:15:31.411Z,8.60
2018-11-01T22:18:00.457Z,8.50
2018-11-01T22:20:29.862Z,8.50
2018-11-01T22:22:58.899Z,8.50
2018-11-01T22:25:27.802Z,8.40
2018-11-01T22:27:56.748Z,8.30
2018-11-01T22:30:25.612Z,8.30
2018-11-01T22:32:54.569Z,8.20
2018-11-01T22:35:23.418Z,8.20
2018-11-01T22:37:52.767Z,8.20
2018-11-01T22:40:22.588Z,8.20
2018-11-01T22:42:51.597Z,8.20
2018-11-01T22:45:20.548Z,8.30
2018-11-01T22:47:50.588Z,8.30
2018-11-01T22:50:19.411Z,8.30
2018-11-01T22:52:48.374Z,8.30
2018-11-01T22:55:17.228Z,8.30
2018-11-01T22:57:46.322Z,8.20
2018-11-01T23:00:16.004Z,8.20
2018-11-01T23:02:45.521Z,8.20
2018-11-01T23:05:14.659Z,8.10
2018-11-01T23:07:44.713Z,8.10
2018-11-01T23:10:14.634Z,8.00
2018-11-01T23:12:44.767Z,8.00
2018-11-01T23:15:13.914Z,7.90
2018-11-01T23:17:43.509Z,7.90
2018-11-01T23:20:13.284Z,7.90
2018-11-01T23:22:43.355Z,8.00
2018-11-01T23:25:12.213Z,8.00
2018-11-01T23:27:41.294Z,8.10
2018-11-01T23:30:10.264Z,8.10
2018-11-01T23:32:39.274Z,8.20
2018-11-01T23:35:08.156Z,8.20
2018-11-01T23:37:45.733Z,8.30
2018-11-01T23:40:19.877Z,8.40
2018-11-01T23:42:54.030Z,8.40
2018-11-01T23:45:35.288Z,8.50
2018-11-01T23:48:04.533Z,8.60
2018-11-01T23:50:40.009Z,8.70
2018-11-01T23:53:15.986Z,8.70
2018-11-01T23:55:44.835Z,8.70
2018-11-01T23:58:13.898Z,8.70
